Autopride — CQQE — position and weather

sailwx.info

Track history (hours):
 
Tides and Currents Weather Stations Pressure Air Temp Water Temp Dewpoint Dewpoint Depression Visibility Wind Speed Wind Dir Waves Ship Positions

Autopride

Last reported at 2014-Aug-20 20:33 UTC. Time now 2014-Aug-21 04:25 UTC.
Position N 36°38' E 015°23'.

Length 125 m; draft 4.8 m.

Type: Cargo ship. MMSI: 255801560.

Date/timePositionNaut miles runAvg speedWind from/ knotsBaromVisibWave heightAir tempDewpointWater temp
2014-Aug-20 20:33N 36°38' E 015°23'1111.4
2014-Aug-20 19:33N 36°28' E 015°17'1111.5
2014-Aug-20 18:33N 36°18' E 015°10'1211.8
2014-Aug-20 17:33N 36°08' E 015°02'1212.0
2014-Aug-20 16:33N 35°58' E 014°54'4 4.2
2014-Aug-20 15:32N 35°55' E 014°49'0 0.0
2014-Aug-20 14:32N 35°55' E 014°49'0 0.0
2014-Aug-20 13:29N 35°55' E 014°49'0 0.0
2014-Aug-20 12:32N 35°55' E 014°49'0 0.0
2014-Aug-20 11:32N 35°55' E 014°49'0 0.0
2014-Aug-20 10:29N 35°55' E 014°49'0 0.0
2014-Aug-20 09:20N 35°55' E 014°49'0 0.0
2014-Aug-20 08:32N 35°55' E 014°49'0 0.0
2014-Aug-20 07:23N 35°55' E 014°49'0 0.0
2014-Aug-20 06:32N 35°55' E 014°49'0 0.0
2014-Aug-20 05:32N 35°55' E 014°49'0 0.0
2014-Aug-20 04:32N 35°55' E 014°49'0 0.0
2014-Aug-20 03:32N 35°55' E 014°49'0 0.0
2014-Aug-20 02:32N 35°55' E 014°49'0 0.0
2014-Aug-20 01:32N 35°55' E 014°50'0 0.0
2014-Aug-20 00:32N 35°55' E 014°49'0 0.0
2014-Aug-19 23:32N 35°55' E 014°50'0 0.0
2014-Aug-19 22:29N 35°55' E 014°49'0 0.0
2014-Aug-19 21:17N 35°55' E 014°49'2 2.9
2014-Aug-19 20:33N 35°55' E 014°47'3 3.0
2014-Aug-19 19:31N 35°53' E 014°45'0 0.0
2014-Aug-19 18:33N 35°53' E 014°45'0 0.0
2014-Aug-19 17:33N 35°53' E 014°45'0 0.0
2014-Aug-19 16:33N 35°53' E 014°45'1 0.8
2014-Aug-19 15:33N 35°52' E 014°44'1010.4
2014-Aug-19 14:33N 35°42' E 014°40'1010.0
2014-Aug-19 13:34N 35°32' E 014°43'1110.9
2014-Aug-19 12:34N 35°22' E 014°45'1110.8
2014-Aug-19 11:33N 35°11' E 014°47'1110.8
2014-Aug-19 10:34N 35°00' E 014°49'1110.7
2014-Aug-19 09:34N 34°50' E 014°52'1510.4
2014-Aug-19 08:10N 34°35' E 014°55'1610.2
2014-Aug-19 06:33N 34°19' E 014°58'1310.3
2014-Aug-19 05:18N 34°07' E 015°01'810.5
2014-Aug-19 04:30N 33°58' E 015°03'4710.7
2014-Aug-19 00:05N 33°12' E 015°12'610.4
2014-Aug-18 23:28N 33°06' E 015°14'2210.6
2014-Aug-18 21:22N 32°44' E 015°18'810.4
2014-Aug-18 20:33N 32°35' E 015°18'1010.5
2014-Aug-18 19:34N 32°25' E 015°15'4 0.1
2014-Aug-17 17:33N 32°23' E 015°19'0 0.0
2014-Aug-17 16:33N 32°23' E 015°19'0 0.0
2014-Aug-17 11:21N 32°23' E 015°19'0 0.0
2014-Aug-17 10:30N 32°23' E 015°19'0 0.0
2014-Aug-17 09:24N 32°23' E 015°19'0 0.0
2014-Aug-17 01:33N 32°23' E 015°19'0 0.0
2014-Aug-16 21:33N 32°23' E 015°19'0 0.0
2014-Aug-16 18:21N 32°23' E 015°19'0 0.0
2014-Aug-16 17:24N 32°23' E 015°19'0 0.0
2014-Aug-16 16:33N 32°23' E 015°19'0 0.0
2014-Aug-16 15:30N 32°23' E 015°19'0 0.0
2014-Aug-16 14:30N 32°23' E 015°19'0 0.0
2014-Aug-16 13:30N 32°23' E 015°19'0 0.0
2014-Aug-16 12:33N 32°23' E 015°19'0 0.0
2014-Aug-16 11:29N 32°23' E 015°19'0 0.0
2014-Aug-16 10:33N 32°23' E 015°19'0 0.0
2014-Aug-16 09:33N 32°23' E 015°19'0 0.0
2014-Aug-16 08:29N 32°23' E 015°19'0 0.0
2014-Aug-16 06:32N 32°23' E 015°19'5 1.8
2014-Aug-16 03:34N 32°28' E 015°16'6510.8
2014-Aug-15 21:33N 33°22' E 014°33'1010.3
2014-Aug-15 20:33N 33°31' E 014°26'1010.2
2014-Aug-15 19:33N 33°39' E 014°19'1010.3
2014-Aug-15 18:34N 33°48' E 014°13'1010.5
2014-Aug-15 17:33N 33°57' E 014°06'1110.7
2014-Aug-15 16:33N 34°05' E 013°58'1110.7
2014-Aug-15 15:33N 34°14' E 013°51'1610.6
2014-Aug-15 14:05N 34°27' E 013°41'610.7
2014-Aug-15 13:34N 34°32' E 013°37'1110.7
2014-Aug-15 12:34N 34°41' E 013°29'1110.8
2014-Aug-15 11:33N 34°50' E 013°22'1111.1
2014-Aug-15 10:34N 34°59' E 013°15'1110.7
2014-Aug-15 09:34N 35°08' E 013°07'1110.8
2014-Aug-15 08:33N 35°17' E 012°60'1110.7
2014-Aug-15 07:34N 35°26' E 012°53'1210.7
2014-Aug-15 06:28N 35°35' E 012°45'1010.8
2014-Aug-15 05:33N 35°44' E 012°38'1111.1
2014-Aug-15 04:34N 35°53' E 012°30'1110.5
2014-Aug-15 03:33N 36°01' E 012°23'1110.8
2014-Aug-15 02:34N 36°10' E 012°16'1110.8
2014-Aug-15 01:34N 36°19' E 012°08'1110.8
2014-Aug-15 00:34N 36°28' E 012°01'1110.3
2014-Aug-14 23:31N 36°38' E 011°54'9 9.1
2014-Aug-14 22:33N 36°46' E 011°50'1212.4
2014-Aug-14 21:33N 36°49' E 011°35'5 5.4
2014-Aug-14 20:33N 36°46' E 011°41'6 6.0
2014-Aug-14 19:34N 36°43' E 011°34'5 4.9
2014-Aug-14 18:33N 36°47' E 011°36'1616.3
2014-Aug-14 17:33N 36°37' E 011°52'1010.3
2014-Aug-14 16:33N 36°46' E 011°46'1313.5
2014-Aug-14 15:33N 36°57' E 011°37'1313.4
2014-Aug-14 14:33N 37°08' E 011°27'4312.5
2014-Aug-14 11:09N 37°30' E 010°41'812.7
2014-Aug-14 10:32N 37°32' E 010°32'2613.0
2014-Aug-14 08:33N 37°33' E 009°59'1413.4
2014-Aug-14 07:33N 37°29' E 009°43'1313.1
2014-Aug-14 06:33N 37°26' E 009°27'1613.0
2014-Aug-14 05:17N 37°22' E 009°07'22013.0
2014-Aug-13 12:22N 37°11' E 004°31'1012.7
2014-Aug-13 11:33N 37°10' E 004°18'2713.2
2014-Aug-13 09:32N 37°05' E 003°45'1413.5
2014-Aug-13 08:32N 37°03' E 003°28'1313.0
2014-Aug-13 07:33N 37°01' E 003°12'1313.2
2014-Aug-13 06:34N 36°59' E 002°56'1313.0
2014-Aug-13 05:32N 36°57' E 002°40'1312.8
2014-Aug-13 04:33N 36°55' E 002°24'1313.0
2014-Aug-13 03:33N 36°53' E 002°08'1313.2
2014-Aug-13 02:32N 36°51' E 001°52'1413.9
2014-Aug-13 01:31N 36°48' E 001°34'1414.0
2014-Aug-13 00:33N 36°46' E 001°18'1413.6
2014-Aug-12 23:33N 36°44' E 001°01'1313.4
2014-Aug-12 22:33N 36°42' E 000°44'1413.3
2014-Aug-12 21:33N 36°40' E 000°28'1313.3
2014-Aug-12 20:33N 36°38' E 000°12'1513.8
2014-Aug-12 19:28N 36°35' W 000°07'1112.6
2014-Aug-12 18:33N 36°33' W 000°21'1413.6
2014-Aug-12 17:31N 36°31' W 000°38'1313.6
2014-Aug-12 16:33N 36°29' W 000°54'10412.9
2014-Aug-12 08:28N 36°14' W 003°02'11414.4
2014-Aug-12 00:34N 35°59' W 005°22'18413.0
2014-Aug-11 10:24N 36°30' W 009°06'  
Track history (hours):
 
Tides and Currents Weather Stations Pressure Air Temp Water Temp Dewpoint Dewpoint Depression Visibility Wind Speed Wind Dir Waves Ship Positions

Autopride

Last reported at 2014-Aug-20 20:33 UTC. Time now 2014-Aug-21 04:25 UTC.
Position N 36°38' E 015°23'.

Length 125 m; draft 4.8 m.

Type: Cargo ship. MMSI: 255801560.

Date/timePositionNaut miles runAvg speedWind from/ knotsBaromVisibWave heightAir tempDewpointWater temp
2014-Aug-20 20:33N 36°38' E 015°23'1111.4
2014-Aug-20 19:33N 36°28' E 015°17'1111.5
2014-Aug-20 18:33N 36°18' E 015°10'1211.8
2014-Aug-20 17:33N 36°08' E 015°02'1212.0
2014-Aug-20 16:33N 35°58' E 014°54'4 4.2
2014-Aug-20 15:32N 35°55' E 014°49'0 0.0
2014-Aug-20 14:32N 35°55' E 014°49'0 0.0
2014-Aug-20 13:29N 35°55' E 014°49'0 0.0
2014-Aug-20 12:32N 35°55' E 014°49'0 0.0
2014-Aug-20 11:32N 35°55' E 014°49'0 0.0
2014-Aug-20 10:29N 35°55' E 014°49'0 0.0
2014-Aug-20 09:20N 35°55' E 014°49'0 0.0
2014-Aug-20 08:32N 35°55' E 014°49'0 0.0
2014-Aug-20 07:23N 35°55' E 014°49'0 0.0
2014-Aug-20 06:32N 35°55' E 014°49'0 0.0
2014-Aug-20 05:32N 35°55' E 014°49'0 0.0
2014-Aug-20 04:32N 35°55' E 014°49'0 0.0
2014-Aug-20 03:32N 35°55' E 014°49'0 0.0
2014-Aug-20 02:32N 35°55' E 014°49'0 0.0
2014-Aug-20 01:32N 35°55' E 014°50'0 0.0
2014-Aug-20 00:32N 35°55' E 014°49'0 0.0
2014-Aug-19 23:32N 35°55' E 014°50'0 0.0
2014-Aug-19 22:29N 35°55' E 014°49'0 0.0
2014-Aug-19 21:17N 35°55' E 014°49'2 2.9
2014-Aug-19 20:33N 35°55' E 014°47'3 3.0
2014-Aug-19 19:31N 35°53' E 014°45'0 0.0
2014-Aug-19 18:33N 35°53' E 014°45'0 0.0
2014-Aug-19 17:33N 35°53' E 014°45'0 0.0
2014-Aug-19 16:33N 35°53' E 014°45'1 0.8
2014-Aug-19 15:33N 35°52' E 014°44'1010.4
2014-Aug-19 14:33N 35°42' E 014°40'1010.0
2014-Aug-19 13:34N 35°32' E 014°43'1110.9
2014-Aug-19 12:34N 35°22' E 014°45'1110.8
2014-Aug-19 11:33N 35°11' E 014°47'1110.8
2014-Aug-19 10:34N 35°00' E 014°49'1110.7
2014-Aug-19 09:34N 34°50' E 014°52'1510.4
2014-Aug-19 08:10N 34°35' E 014°55'1610.2
2014-Aug-19 06:33N 34°19' E 014°58'1310.3
2014-Aug-19 05:18N 34°07' E 015°01'810.5
2014-Aug-19 04:30N 33°58' E 015°03'4710.7
2014-Aug-19 00:05N 33°12' E 015°12'610.4
2014-Aug-18 23:28N 33°06' E 015°14'2210.6
2014-Aug-18 21:22N 32°44' E 015°18'810.4
2014-Aug-18 20:33N 32°35' E 015°18'1010.5
2014-Aug-18 19:34N 32°25' E 015°15'4 0.1
2014-Aug-17 17:33N 32°23' E 015°19'0 0.0
2014-Aug-17 16:33N 32°23' E 015°19'0 0.0
2014-Aug-17 11:21N 32°23' E 015°19'0 0.0
2014-Aug-17 10:30N 32°23' E 015°19'0 0.0
2014-Aug-17 09:24N 32°23' E 015°19'0 0.0
2014-Aug-17 01:33N 32°23' E 015°19'0 0.0
2014-Aug-16 21:33N 32°23' E 015°19'0 0.0
2014-Aug-16 18:21N 32°23' E 015°19'0 0.0
2014-Aug-16 17:24N 32°23' E 015°19'0 0.0
2014-Aug-16 16:33N 32°23' E 015°19'0 0.0
2014-Aug-16 15:30N 32°23' E 015°19'0 0.0
2014-Aug-16 14:30N 32°23' E 015°19'0 0.0
2014-Aug-16 13:30N 32°23' E 015°19'0 0.0
2014-Aug-16 12:33N 32°23' E 015°19'0 0.0
2014-Aug-16 11:29N 32°23' E 015°19'0 0.0
2014-Aug-16 10:33N 32°23' E 015°19'0 0.0
2014-Aug-16 09:33N 32°23' E 015°19'0 0.0
2014-Aug-16 08:29N 32°23' E 015°19'0 0.0
2014-Aug-16 06:32N 32°23' E 015°19'5 1.8
2014-Aug-16 03:34N 32°28' E 015°16'6510.8
2014-Aug-15 21:33N 33°22' E 014°33'1010.3
2014-Aug-15 20:33N 33°31' E 014°26'1010.2
2014-Aug-15 19:33N 33°39' E 014°19'1010.3
2014-Aug-15 18:34N 33°48' E 014°13'1010.5
2014-Aug-15 17:33N 33°57' E 014°06'1110.7
2014-Aug-15 16:33N 34°05' E 013°58'1110.7
2014-Aug-15 15:33N 34°14' E 013°51'1610.6
2014-Aug-15 14:05N 34°27' E 013°41'610.7
2014-Aug-15 13:34N 34°32' E 013°37'1110.7
2014-Aug-15 12:34N 34°41' E 013°29'1110.8
2014-Aug-15 11:33N 34°50' E 013°22'1111.1
2014-Aug-15 10:34N 34°59' E 013°15'1110.7
2014-Aug-15 09:34N 35°08' E 013°07'1110.8
2014-Aug-15 08:33N 35°17' E 012°60'1110.7
2014-Aug-15 07:34N 35°26' E 012°53'1210.7
2014-Aug-15 06:28N 35°35' E 012°45'1010.8
2014-Aug-15 05:33N 35°44' E 012°38'1111.1
2014-Aug-15 04:34N 35°53' E 012°30'1110.5
2014-Aug-15 03:33N 36°01' E 012°23'1110.8
2014-Aug-15 02:34N 36°10' E 012°16'1110.8
2014-Aug-15 01:34N 36°19' E 012°08'1110.8
2014-Aug-15 00:34N 36°28' E 012°01'1110.3
2014-Aug-14 23:31N 36°38' E 011°54'9 9.1
2014-Aug-14 22:33N 36°46' E 011°50'1212.4
2014-Aug-14 21:33N 36°49' E 011°35'5 5.4
2014-Aug-14 20:33N 36°46' E 011°41'6 6.0
2014-Aug-14 19:34N 36°43' E 011°34'5 4.9
2014-Aug-14 18:33N 36°47' E 011°36'1616.3
2014-Aug-14 17:33N 36°37' E 011°52'1010.3
2014-Aug-14 16:33N 36°46' E 011°46'1313.5
2014-Aug-14 15:33N 36°57' E 011°37'1313.4
2014-Aug-14 14:33N 37°08' E 011°27'4312.5
2014-Aug-14 11:09N 37°30' E 010°41'812.7
2014-Aug-14 10:32N 37°32' E 010°32'2613.0
2014-Aug-14 08:33N 37°33' E 009°59'1413.4
2014-Aug-14 07:33N 37°29' E 009°43'1313.1
2014-Aug-14 06:33N 37°26' E 009°27'1613.0
2014-Aug-14 05:17N 37°22' E 009°07'22013.0
2014-Aug-13 12:22N 37°11' E 004°31'1012.7
2014-Aug-13 11:33N 37°10' E 004°18'2713.2
2014-Aug-13 09:32N 37°05' E 003°45'1413.5
2014-Aug-13 08:32N 37°03' E 003°28'1313.0
2014-Aug-13 07:33N 37°01' E 003°12'1313.2
2014-Aug-13 06:34N 36°59' E 002°56'1313.0
2014-Aug-13 05:32N 36°57' E 002°40'1312.8
2014-Aug-13 04:33N 36°55' E 002°24'1313.0
2014-Aug-13 03:33N 36°53' E 002°08'1313.2
2014-Aug-13 02:32N 36°51' E 001°52'1413.9
2014-Aug-13 01:31N 36°48' E 001°34'1414.0
2014-Aug-13 00:33N 36°46' E 001°18'1413.6
2014-Aug-12 23:33N 36°44' E 001°01'1313.4
2014-Aug-12 22:33N 36°42' E 000°44'1413.3
2014-Aug-12 21:33N 36°40' E 000°28'1313.3
2014-Aug-12 20:33N 36°38' E 000°12'1513.8
2014-Aug-12 19:28N 36°35' W 000°07'1112.6
2014-Aug-12 18:33N 36°33' W 000°21'1413.6
2014-Aug-12 17:31N 36°31' W 000°38'1313.6
2014-Aug-12 16:33N 36°29' W 000°54'10412.9
2014-Aug-12 08:28N 36°14' W 003°02'11414.4
2014-Aug-12 00:34N 35°59' W 005°22'18413.0
2014-Aug-11 10:24N 36°30' W 009°06'  

Dump ship's entire track history